Jack Guidry — WDF2422 — position and weather

sailwx.info

Track history (hours):
 
Tides and Currents Weather Stations Pressure Air Temp Water Temp Dewpoint Dewpoint Depression Visibility Wind Speed Wind Dir Waves Ship Positions

Jack Guidry

Owner: Enterprise Marine Services, LLC, San Antonio, TX. More information available from US FCC via Universal Licensing System and Coast Guard Vessel Documentation Center.

Last reported at 2016-Dec-06 22:25 UTC. Time now 2016-Dec-08 14:25 UTC.
Position N 29°47' W 095°05'.

Length 22 m; draft 3 m.

Type: Other ship. MMSI: 367003430.

Date/timePositionNaut miles runAvg speedWind from/ knotsBaromVisibWave heightAir tempDewpointWater temp
2016-Dec-06 22:25N 29°47' W 095°05'0 0.0
2016-Dec-06 21:32N 29°47' W 095°05'0 0.0
2016-Dec-06 20:17N 29°47' W 095°05'0 0.0
2016-Dec-06 17:27N 29°47' W 095°05'0 0.0
2016-Dec-06 16:23N 29°47' W 095°05'0 0.0
2016-Dec-06 15:30N 29°47' W 095°05'0 0.0
2016-Dec-06 14:33N 29°47' W 095°05'0 0.0
2016-Dec-05 23:09N 29°47' W 095°05'0 0.0
2016-Dec-05 22:27N 29°47' W 095°05'1 0.8
2016-Dec-05 21:18N 29°46' W 095°05'3 3.3
2016-Dec-05 20:30N 29°44' W 095°03'4 3.9
2016-Dec-05 19:33N 29°42' W 094°60'6 5.6
2016-Dec-05 18:33N 29°37' W 094°57'7 7.2
2016-Dec-05 17:33N 29°31' W 094°53'  
2016-Dec-03 03:18N 30°04' W 093°32'3 4.0
2016-Dec-03 02:33N 30°04' W 093°29'5 5.1
2016-Dec-03 01:33N 30°04' W 093°23'4 3.8
2016-Dec-03 00:33N 30°06' W 093°20'2 1.8
2016-Dec-02 23:33N 30°08' W 093°19'0 0.1
2016-Dec-02 22:33N 30°08' W 093°19'0 0.0
2016-Dec-02 21:33N 30°08' W 093°19'0 0.0
2016-Dec-02 20:33N 30°08' W 093°19'0 0.0
2016-Dec-02 19:33N 30°08' W 093°19'0 0.0
2016-Dec-02 18:33N 30°08' W 093°19'0 0.0
2016-Dec-02 17:33N 30°08' W 093°19'0 0.0
2016-Dec-02 16:33N 30°08' W 093°19'0 0.0
2016-Dec-02 15:33N 30°08' W 093°19'0 0.0
2016-Dec-02 14:33N 30°08' W 093°19'0 0.0
2016-Dec-02 13:33N 30°08' W 093°19'0 0.0
2016-Dec-02 12:33N 30°08' W 093°19'0 0.0
2016-Dec-02 11:33N 30°08' W 093°19'0 0.0
2016-Dec-02 10:33N 30°08' W 093°19'0 0.0
2016-Dec-02 09:33N 30°08' W 093°19'0 0.0
2016-Dec-02 08:33N 30°08' W 093°19'0 0.1
2016-Dec-02 07:33N 30°08' W 093°19'0 0.2
2016-Dec-02 06:33N 30°08' W 093°19'0 0.0
2016-Dec-02 05:34N 30°08' W 093°19'0 0.0
2016-Dec-02 04:33N 30°08' W 093°19'4 3.8
2016-Dec-02 03:33N 30°04' W 093°20'3 2.6
2016-Dec-02 02:33N 30°04' W 093°23'71 1.6
2016-Nov-30 07:08N 29°30' W 094°34'21 4.2
2016-Nov-30 02:10N 29°36' W 094°57'  
2016-Nov-27 02:11N 29°45' W 095°06'  
Track history (hours):
 
Tides and Currents Weather Stations Pressure Air Temp Water Temp Dewpoint Dewpoint Depression Visibility Wind Speed Wind Dir Waves Ship Positions

Jack Guidry

Owner: Enterprise Marine Services, LLC, San Antonio, TX. More information available from US FCC via Universal Licensing System and Coast Guard Vessel Documentation Center.

Last reported at 2016-Dec-06 22:25 UTC. Time now 2016-Dec-08 14:25 UTC.
Position N 29°47' W 095°05'.

Length 22 m; draft 3 m.

Type: Other ship. MMSI: 367003430.

Date/timePositionNaut miles runAvg speedWind from/ knotsBaromVisibWave heightAir tempDewpointWater temp
2016-Dec-06 22:25N 29°47' W 095°05'0 0.0
2016-Dec-06 21:32N 29°47' W 095°05'0 0.0
2016-Dec-06 20:17N 29°47' W 095°05'0 0.0
2016-Dec-06 17:27N 29°47' W 095°05'0 0.0
2016-Dec-06 16:23N 29°47' W 095°05'0 0.0
2016-Dec-06 15:30N 29°47' W 095°05'0 0.0
2016-Dec-06 14:33N 29°47' W 095°05'0 0.0
2016-Dec-05 23:09N 29°47' W 095°05'0 0.0
2016-Dec-05 22:27N 29°47' W 095°05'1 0.8
2016-Dec-05 21:18N 29°46' W 095°05'3 3.3
2016-Dec-05 20:30N 29°44' W 095°03'4 3.9
2016-Dec-05 19:33N 29°42' W 094°60'6 5.6
2016-Dec-05 18:33N 29°37' W 094°57'7 7.2
2016-Dec-05 17:33N 29°31' W 094°53'  
2016-Dec-03 03:18N 30°04' W 093°32'3 4.0
2016-Dec-03 02:33N 30°04' W 093°29'5 5.1
2016-Dec-03 01:33N 30°04' W 093°23'4 3.8
2016-Dec-03 00:33N 30°06' W 093°20'2 1.8
2016-Dec-02 23:33N 30°08' W 093°19'0 0.1
2016-Dec-02 22:33N 30°08' W 093°19'0 0.0
2016-Dec-02 21:33N 30°08' W 093°19'0 0.0
2016-Dec-02 20:33N 30°08' W 093°19'0 0.0
2016-Dec-02 19:33N 30°08' W 093°19'0 0.0
2016-Dec-02 18:33N 30°08' W 093°19'0 0.0
2016-Dec-02 17:33N 30°08' W 093°19'0 0.0
2016-Dec-02 16:33N 30°08' W 093°19'0 0.0
2016-Dec-02 15:33N 30°08' W 093°19'0 0.0
2016-Dec-02 14:33N 30°08' W 093°19'0 0.0
2016-Dec-02 13:33N 30°08' W 093°19'0 0.0
2016-Dec-02 12:33N 30°08' W 093°19'0 0.0
2016-Dec-02 11:33N 30°08' W 093°19'0 0.0
2016-Dec-02 10:33N 30°08' W 093°19'0 0.0
2016-Dec-02 09:33N 30°08' W 093°19'0 0.0
2016-Dec-02 08:33N 30°08' W 093°19'0 0.1
2016-Dec-02 07:33N 30°08' W 093°19'0 0.2
2016-Dec-02 06:33N 30°08' W 093°19'0 0.0
2016-Dec-02 05:34N 30°08' W 093°19'0 0.0
2016-Dec-02 04:33N 30°08' W 093°19'4 3.8
2016-Dec-02 03:33N 30°04' W 093°20'3 2.6
2016-Dec-02 02:33N 30°04' W 093°23'71 1.6
2016-Nov-30 07:08N 29°30' W 094°34'21 4.2
2016-Nov-30 02:10N 29°36' W 094°57'  
2016-Nov-27 02:11N 29°45' W 095°06'  

Dump ship's entire track history